createdAt,value
2019-02-11T00:00:01.821Z,86.97
2019-02-11T00:02:30.101Z,87.18
2019-02-11T00:04:58.367Z,86.92
2019-02-11T00:07:26.602Z,86.55
2019-02-11T00:09:54.869Z,86.79
2019-02-11T00:12:23.131Z,86.39
2019-02-11T00:14:51.405Z,86.48
2019-02-11T00:17:19.659Z,86.23
2019-02-11T00:19:50.447Z,86.20
2019-02-11T00:22:18.759Z,86.13
2019-02-11T00:24:47.079Z,86.20
2019-02-11T00:27:15.663Z,86.05
2019-02-11T00:29:43.940Z,86.09
2019-02-11T00:32:13.807Z,85.88
2019-02-11T00:34:42.071Z,86.16
2019-02-11T00:37:10.342Z,86.03
2019-02-11T00:39:38.596Z,85.82
2019-02-11T00:42:06.841Z,85.74
2019-02-11T00:44:35.123Z,85.59
2019-02-11T00:47:03.394Z,85.73
2019-02-11T00:49:31.645Z,85.49
2019-02-11T00:51:59.917Z,85.72
2019-02-11T00:54:28.164Z,85.77
2019-02-11T00:56:56.429Z,85.76
2019-02-11T00:59:24.692Z,85.09
2019-02-11T01:01:52.956Z,85.68
2019-02-11T01:04:21.202Z,85.64
2019-02-11T01:06:49.490Z,85.52
2019-02-11T01:09:17.724Z,85.49
2019-02-11T01:11:45.992Z,85.40
2019-02-11T01:14:14.250Z,85.14
2019-02-11T01:16:42.503Z,85.01
2019-02-11T01:19:10.744Z,85.02
2019-02-11T01:21:39.025Z,84.74
2019-02-11T01:24:07.276Z,84.56
2019-02-11T01:26:35.549Z,84.89
2019-02-11T01:29:03.804Z,84.94
2019-02-11T01:31:32.153Z,84.97
2019-02-11T01:34:00.412Z,84.52
2019-02-11T01:36:28.658Z,84.31
2019-02-11T01:38:56.918Z,84.77
2019-02-11T01:41:25.210Z,84.53
2019-02-11T01:43:53.482Z,84.33
2019-02-11T01:46:21.726Z,84.33
2019-02-11T01:48:49.992Z,83.56
2019-02-11T01:51:18.251Z,84.08
2019-02-11T01:53:46.521Z,84.27
2019-02-11T01:56:14.754Z,84.11
2019-02-11T01:58:43.006Z,84.10
2019-02-11T02:01:11.273Z,84.42
2019-02-11T02:03:39.528Z,84.12
2019-02-11T02:06:07.806Z,84.01
2019-02-11T02:08:36.073Z,83.80
2019-02-11T02:11:04.312Z,83.91
2019-02-11T02:13:32.577Z,84.27
2019-02-11T02:16:00.826Z,83.73
2019-02-11T02:18:29.082Z,84.22
2019-02-11T02:20:57.332Z,83.77
2019-02-11T02:23:25.576Z,83.41
2019-02-11T02:25:53.844Z,84.04
2019-02-11T02:28:22.095Z,84.21
2019-02-11T02:30:50.362Z,84.13
2019-02-11T02:33:18.604Z,84.27
2019-02-11T02:35:46.863Z,83.78
2019-02-11T02:38:15.476Z,83.96
2019-02-11T02:40:43.732Z,84.22
2019-02-11T02:43:12.004Z,84.21
2019-02-11T02:45:40.284Z,84.06
2019-02-11T02:48:08.526Z,84.33
2019-02-11T02:50:36.802Z,84.47
2019-02-11T02:53:05.035Z,84.29
2019-02-11T02:55:34.876Z,84.50
2019-02-11T02:58:03.426Z,84.47
2019-02-11T03:00:31.683Z,84.64
2019-02-11T03:02:59.967Z,84.56
2019-02-11T03:05:28.257Z,85.02
2019-02-11T03:07:56.512Z,84.96
2019-02-11T03:10:24.776Z,85.37
2019-02-11T03:12:53.096Z,85.26
2019-02-11T03:15:21.347Z,85.77
2019-02-11T03:17:49.595Z,85.71
2019-02-11T03:20:17.830Z,85.71
2019-02-11T03:22:46.089Z,85.64
2019-02-11T03:25:14.339Z,85.60
2019-02-11T03:27:42.605Z,85.62
2019-02-11T03:30:10.932Z,85.76
2019-02-11T03:32:39.183Z,85.85
2019-02-11T03:35:07.612Z,85.82
2019-02-11T03:37:35.859Z,85.86
2019-02-11T03:40:06.357Z,85.84
2019-02-11T03:42:34.642Z,85.67
2019-02-11T03:45:03.077Z,85.41
2019-02-11T03:47:31.368Z,85.51
2019-02-11T03:49:59.621Z,85.35
2019-02-11T03:52:27.883Z,85.18
2019-02-11T03:54:56.141Z,85.25
2019-02-11T03:57:24.405Z,85.39
2019-02-11T03:59:52.667Z,85.13
2019-02-11T04:02:20.963Z,84.90
2019-02-11T04:04:49.241Z,85.06
2019-02-11T04:07:17.517Z,84.86
2019-02-11T04:09:45.753Z,85.19
2019-02-11T04:12:14.001Z,85.01
2019-02-11T04:14:42.257Z,84.90
2019-02-11T04:17:10.509Z,84.74
2019-02-11T04:19:38.781Z,84.83
2019-02-11T04:22:07.801Z,84.96
2019-02-11T04:24:36.062Z,84.97
2019-02-11T04:27:04.320Z,85.01
2019-02-11T04:29:32.601Z,85.13
2019-02-11T04:32:00.815Z,85.30
2019-02-11T04:34:29.104Z,85.31
2019-02-11T04:36:57.358Z,85.33
2019-02-11T04:39:25.627Z,85.33
2019-02-11T04:41:53.864Z,85.42
2019-02-11T04:44:22.139Z,85.43
2019-02-11T04:46:50.391Z,85.21
2019-02-11T04:49:18.687Z,85.25
2019-02-11T04:51:46.947Z,85.33
2019-02-11T04:54:15.280Z,84.75
2019-02-11T04:56:43.535Z,84.76
2019-02-11T04:59:11.822Z,84.74
2019-02-11T05:01:40.077Z,84.53
2019-02-11T05:04:08.348Z,84.48
2019-02-11T05:06:36.621Z,84.36
2019-02-11T05:09:07.555Z,84.77
2019-02-11T05:11:35.811Z,83.92
2019-02-11T05:14:04.065Z,83.86
2019-02-11T05:16:32.333Z,83.74
2019-02-11T05:19:00.597Z,83.65
2019-02-11T05:21:28.863Z,83.50
2019-02-11T05:23:57.127Z,83.15
2019-02-11T05:26:25.410Z,82.65
2019-02-11T05:28:53.667Z,81.76
2019-02-11T05:31:21.939Z,81.24
2019-02-11T05:33:50.196Z,79.55
2019-02-11T05:36:18.472Z,80.04
2019-02-11T05:38:46.706Z,78.40
2019-02-11T05:41:14.966Z,79.74
2019-02-11T05:43:43.239Z,79.64
2019-02-11T05:46:11.506Z,78.80
2019-02-11T05:48:39.758Z,79.04
2019-02-11T05:51:08.031Z,79.07
2019-02-11T05:53:36.286Z,78.36
2019-02-11T05:56:04.552Z,78.09
2019-02-11T05:58:32.798Z,77.81
2019-02-11T06:01:01.088Z,78.92
2019-02-11T06:03:29.349Z,78.33
2019-02-11T06:05:57.596Z,79.15
2019-02-11T06:08:28.710Z,78.50
2019-02-11T06:10:56.984Z,78.92
2019-02-11T06:13:25.208Z,78.34
2019-02-11T06:15:53.461Z,78.02
2019-02-11T06:18:21.743Z,78.81
2019-02-11T06:20:51.872Z,78.46
2019-02-11T06:23:27.173Z,77.79
2019-02-11T06:25:55.430Z,78.48
2019-02-11T06:28:23.718Z,77.94
2019-02-11T06:30:51.968Z,77.72
2019-02-11T06:33:20.253Z,77.21
2019-02-11T06:35:48.555Z,77.14
2019-02-11T06:38:16.807Z,77.46
2019-02-11T06:40:45.137Z,76.30
2019-02-11T06:43:15.038Z,77.01
2019-02-11T06:45:43.293Z,76.31
2019-02-11T06:48:11.550Z,76.68
2019-02-11T06:50:41.436Z,76.00
2019-02-11T06:53:09.685Z,77.03
2019-02-11T06:55:37.931Z,76.99
2019-02-11T06:58:06.246Z,76.64
2019-02-11T07:00:34.519Z,76.01
2019-02-11T07:03:02.787Z,76.94
2019-02-11T07:05:31.051Z,76.68
2019-02-11T07:07:59.330Z,76.39
2019-02-11T07:10:27.586Z,75.74
2019-02-11T07:12:55.825Z,74.91
2019-02-11T07:15:24.091Z,74.71
2019-02-11T07:17:52.371Z,75.72
2019-02-11T07:20:20.643Z,74.42
2019-02-11T07:22:48.926Z,75.69
2019-02-11T07:25:17.182Z,74.45
2019-02-11T07:27:45.481Z,74.93
2019-02-11T07:30:14.226Z,73.91
2019-02-11T07:32:42.506Z,74.54
2019-02-11T07:35:10.783Z,74.38
2019-02-11T07:37:39.027Z,73.39
2019-02-11T07:40:10.045Z,73.73
2019-02-11T07:42:39.930Z,74.07
2019-02-11T07:45:11.881Z,74.85
2019-02-11T07:47:40.180Z,73.80
2019-02-11T07:50:08.433Z,75.00
2019-02-11T07:52:36.716Z,73.22
2019-02-11T07:55:05.838Z,73.84
2019-02-11T07:57:34.102Z,74.26
2019-02-11T08:00:02.364Z,72.37
2019-02-11T08:02:30.631Z,71.91
2019-02-11T08:04:58.878Z,72.34
2019-02-11T08:07:27.183Z,72.49
2019-02-11T08:09:55.454Z,72.69
2019-02-11T08:12:23.728Z,72.54
2019-02-11T08:14:51.968Z,71.16
2019-02-11T08:17:20.280Z,71.11
2019-02-11T08:19:48.513Z,71.53
2019-02-11T08:22:16.774Z,71.70
2019-02-11T08:24:45.070Z,72.84
2019-02-11T08:27:13.834Z,72.43
2019-02-11T08:29:43.299Z,71.92
2019-02-11T08:32:11.551Z,70.00
2019-02-11T08:34:39.810Z,69.60
2019-02-11T08:37:08.061Z,67.37
2019-02-11T08:39:36.329Z,67.41
2019-02-11T08:42:04.580Z,66.37
2019-02-11T08:44:33.671Z,62.03
2019-02-11T08:47:01.998Z,64.35
2019-02-11T08:49:30.271Z,66.54
2019-02-11T08:51:58.576Z,63.89
2019-02-11T08:54:26.812Z,62.99
2019-02-11T08:56:55.094Z,59.42
2019-02-11T08:59:23.425Z,58.61
2019-02-11T09:01:51.715Z,55.54
2019-02-11T09:04:19.998Z,57.30
2019-02-11T09:06:48.296Z,55.57
2019-02-11T09:09:16.572Z,51.61
2019-02-11T09:11:44.831Z,54.61
2019-02-11T09:14:13.101Z,54.22
2019-02-11T09:16:41.371Z,54.11
2019-02-11T09:19:09.702Z,54.45
2019-02-11T09:21:37.964Z,55.32
2019-02-11T09:24:06.224Z,55.48
2019-02-11T09:26:34.515Z,55.94
2019-02-11T09:29:02.838Z,57.68
2019-02-11T09:31:31.126Z,57.33
2019-02-11T09:33:59.373Z,58.19
2019-02-11T09:36:27.692Z,56.80
2019-02-11T09:38:55.973Z,58.23
2019-02-11T09:41:24.240Z,57.91
2019-02-11T09:43:52.500Z,58.65
2019-02-11T09:46:21.361Z,59.90
2019-02-11T09:48:49.634Z,60.21
2019-02-11T09:51:18.179Z,60.05
2019-02-11T09:53:46.455Z,61.27
2019-02-11T09:56:14.792Z,61.60
2019-02-11T09:58:43.045Z,61.99
2019-02-11T10:01:11.313Z,62.46
2019-02-11T10:03:39.565Z,62.61
2019-02-11T10:06:07.844Z,62.64
2019-02-11T10:08:36.228Z,62.71
2019-02-11T10:11:04.504Z,62.83
2019-02-11T10:13:32.756Z,63.44
2019-02-11T10:16:01.007Z,63.74
2019-02-11T10:18:29.265Z,63.14
2019-02-11T10:20:57.683Z,63.44
2019-02-11T10:23:25.953Z,63.99
2019-02-11T10:25:54.234Z,64.93
2019-02-11T10:28:22.513Z,65.72
2019-02-11T10:30:50.797Z,65.01
2019-02-11T10:33:19.053Z,64.94
2019-02-11T10:35:47.391Z,64.50
2019-02-11T10:38:15.653Z,64.97
2019-02-11T10:40:43.887Z,65.56
2019-02-11T10:43:12.163Z,66.81
2019-02-11T10:45:40.422Z,66.70
2019-02-11T10:48:08.694Z,67.28
2019-02-11T10:50:37.013Z,66.72
2019-02-11T10:53:05.273Z,65.91
2019-02-11T10:55:33.569Z,67.31
2019-02-11T10:58:01.818Z,67.24
2019-02-11T11:00:30.179Z,66.78
2019-02-11T11:03:00.130Z,65.07
2019-02-11T11:05:28.405Z,64.63
2019-02-11T11:07:56.660Z,65.16
2019-02-11T11:10:33.996Z,64.49
2019-02-11T11:13:02.234Z,65.03
2019-02-11T11:15:30.507Z,63.58
2019-02-11T11:17:58.752Z,63.69
2019-02-11T11:20:27.435Z,62.65
2019-02-11T11:22:55.765Z,61.46
2019-02-11T11:25:24.014Z,62.20
2019-02-11T11:27:52.294Z,62.78
2019-02-11T11:30:23.071Z,63.13
2019-02-11T11:32:51.313Z,60.65
2019-02-11T11:35:19.648Z,61.76
2019-02-11T11:37:47.899Z,61.02
2019-02-11T11:40:21.188Z,61.34
2019-02-11T11:42:49.433Z,60.79
2019-02-11T11:45:21.039Z,59.28
2019-02-11T11:47:49.280Z,59.52
2019-02-11T11:50:17.932Z,58.86
2019-02-11T11:52:46.194Z,59.15
2019-02-11T11:55:22.509Z,58.50
2019-02-11T11:57:50.765Z,58.71
2019-02-11T12:00:29.986Z,59.26
2019-02-11T12:03:02.697Z,56.31
2019-02-11T12:05:28.319Z,56.73
2019-02-11T12:07:56.568Z,56.88
2019-02-11T12:10:24.854Z,56.00
2019-02-11T12:12:53.121Z,56.53
2019-02-11T12:15:23.433Z,56.67
2019-02-11T12:17:51.770Z,57.02
2019-02-11T12:20:20.036Z,56.68
2019-02-11T12:22:48.364Z,56.72
2019-02-11T12:25:17.977Z,55.97
2019-02-11T12:27:46.377Z,56.44
2019-02-11T12:30:23.107Z,56.57
2019-02-11T12:32:54.307Z,57.74
2019-02-11T12:35:21.343Z,57.42
2019-02-11T12:37:49.636Z,57.39
2019-02-11T12:40:17.891Z,56.00
2019-02-11T12:42:46.168Z,56.11
2019-02-11T12:45:17.215Z,57.07
2019-02-11T12:47:45.560Z,57.89
2019-02-11T12:50:15.643Z,57.21
2019-02-11T12:52:43.881Z,58.64
2019-02-11T12:55:16.776Z,57.94
2019-02-11T12:57:45.061Z,59.08
2019-02-11T13:00:18.688Z,58.40
2019-02-11T13:02:47.093Z,57.59
2019-02-11T13:05:15.410Z,58.19
2019-02-11T13:07:43.774Z,56.66
2019-02-11T13:10:15.289Z,57.09
2019-02-11T13:12:43.622Z,58.08
2019-02-11T13:15:33.491Z,58.14
2019-02-11T13:17:43.614Z,58.39
2019-02-11T13:20:14.403Z,58.12
2019-02-11T13:22:42.623Z,58.31
2019-02-11T13:25:15.824Z,59.00
2019-02-11T13:27:44.062Z,59.41
2019-02-11T13:30:14.788Z,59.08
2019-02-11T13:32:43.053Z,58.79
2019-02-11T13:35:11.326Z,57.84
2019-02-11T13:37:39.611Z,57.01
2019-02-11T13:40:09.722Z,56.91
2019-02-11T13:42:38.042Z,57.63
2019-02-11T13:45:12.056Z,57.19
2019-02-11T13:47:53.887Z,57.90
2019-02-11T13:50:16.076Z,58.95
2019-02-11T13:52:44.424Z,57.99
2019-02-11T13:55:12.751Z,57.15
2019-02-11T13:57:41.017Z,59.11
2019-02-11T14:00:16.355Z,59.15
2019-02-11T14:02:47.117Z,59.20
2019-02-11T14:05:15.791Z,59.54
2019-02-11T14:07:44.049Z,59.75
2019-02-11T14:10:12.590Z,60.81
2019-02-11T14:12:40.945Z,59.16
2019-02-11T14:15:09.191Z,59.99
2019-02-11T14:17:37.488Z,59.46
2019-02-11T14:20:08.934Z,59.39
2019-02-11T14:22:37.209Z,59.37
2019-02-11T14:25:05.839Z,59.40
2019-02-11T14:27:34.120Z,58.27
2019-02-11T14:30:02.471Z,58.91
2019-02-11T14:32:31.635Z,59.00
2019-02-11T14:35:00.005Z,60.55
2019-02-11T14:37:28.275Z,59.24
2019-02-11T14:39:56.524Z,60.04
2019-02-11T14:42:24.777Z,59.62
2019-02-11T14:44:56.009Z,59.86
2019-02-11T14:47:24.294Z,58.87
2019-02-11T14:49:53.899Z,58.86
2019-02-11T14:52:22.476Z,57.59
2019-02-11T14:54:51.196Z,57.80
2019-02-11T14:57:19.485Z,57.58
2019-02-11T14:59:47.734Z,55.80
2019-02-11T15:02:15.982Z,55.02
2019-02-11T15:04:44.257Z,57.03
2019-02-11T15:07:12.518Z,55.75
2019-02-11T15:09:40.784Z,55.21
2019-02-11T15:12:09.031Z,56.43
2019-02-11T15:14:37.318Z,56.23
2019-02-11T15:17:05.647Z,56.92
2019-02-11T15:19:35.552Z,57.24
2019-02-11T15:22:03.807Z,57.81
2019-02-11T15:24:32.074Z,57.92
2019-02-11T15:27:00.328Z,57.15
2019-02-11T15:29:28.638Z,58.78
2019-02-11T15:31:56.891Z,57.48
2019-02-11T15:34:25.151Z,57.98
2019-02-11T15:36:53.431Z,58.35
2019-02-11T15:39:21.703Z,58.18
2019-02-11T15:41:49.967Z,58.55
2019-02-11T15:44:18.225Z,59.83
2019-02-11T15:46:46.482Z,59.54
2019-02-11T15:49:14.782Z,59.24
2019-02-11T15:51:43.027Z,58.54
2019-02-11T15:54:11.313Z,58.52
2019-02-11T15:56:39.559Z,59.82
2019-02-11T15:59:09.211Z,58.80
2019-02-11T16:01:37.664Z,60.25
2019-02-11T16:04:06.836Z,60.23
2019-02-11T16:06:38.071Z,61.16
2019-02-11T16:09:05.556Z,61.48
2019-02-11T16:11:35.728Z,61.78
2019-02-11T16:14:04.240Z,62.39
2019-02-11T16:16:32.516Z,62.78
2019-02-11T16:19:02.429Z,62.23
2019-02-11T16:21:30.714Z,62.15
2019-02-11T16:23:59.024Z,62.66
2019-02-11T16:26:27.305Z,61.91
2019-02-11T16:28:55.536Z,60.93
2019-02-11T16:31:23.814Z,60.31
2019-02-11T16:33:52.296Z,60.73
2019-02-11T16:36:20.617Z,61.61
2019-02-11T16:38:48.894Z,61.14
2019-02-11T16:41:17.179Z,61.05
2019-02-11T16:43:45.466Z,63.41
2019-02-11T16:46:13.734Z,61.13
2019-02-11T16:48:42.044Z,63.78
2019-02-11T16:51:12.839Z,61.32
2019-02-11T16:53:42.743Z,62.41
2019-02-11T16:56:19.835Z,61.93
2019-02-11T16:58:49.775Z,62.42
2019-02-11T17:01:18.060Z,62.80
2019-02-11T17:03:46.839Z,62.31
2019-02-11T17:06:15.116Z,62.38
2019-02-11T17:08:45.458Z,62.72
2019-02-11T17:11:15.363Z,62.61
2019-02-11T17:13:44.676Z,62.41
2019-02-11T17:16:13.434Z,64.10
2019-02-11T17:18:43.322Z,62.77
2019-02-11T17:21:13.267Z,62.35
2019-02-11T17:23:41.551Z,63.42
2019-02-11T17:26:09.852Z,63.18
2019-02-11T17:28:38.094Z,63.24
2019-02-11T17:31:06.371Z,62.86
2019-02-11T17:33:34.675Z,63.20
2019-02-11T17:36:03.071Z,63.49
2019-02-11T17:38:31.368Z,62.98
2019-02-11T17:40:59.626Z,62.96
2019-02-11T17:43:27.906Z,63.98
2019-02-11T17:45:57.047Z,62.36
2019-02-11T17:48:26.972Z,63.05
2019-02-11T17:50:55.247Z,62.54
2019-02-11T17:53:23.887Z,62.03
2019-02-11T17:55:52.156Z,62.51
2019-02-11T17:58:20.419Z,62.97
2019-02-11T18:00:50.347Z,62.76
2019-02-11T18:03:18.596Z,62.92
2019-02-11T18:05:46.984Z,63.01
2019-02-11T18:08:15.330Z,63.22
2019-02-11T18:10:43.587Z,62.51
2019-02-11T18:13:11.856Z,63.18
2019-02-11T18:15:40.133Z,63.68
2019-02-11T18:18:08.398Z,64.12
2019-02-11T18:20:36.660Z,64.36
2019-02-11T18:23:04.905Z,64.07
2019-02-11T18:25:33.179Z,65.55
2019-02-11T18:28:01.432Z,64.71
2019-02-11T18:30:29.705Z,64.53
2019-02-11T18:32:57.975Z,64.63
2019-02-11T18:35:26.239Z,64.77
2019-02-11T18:37:54.529Z,66.07
2019-02-11T18:40:22.797Z,65.72
2019-02-11T18:42:52.760Z,66.51
2019-02-11T18:45:21.069Z,65.91
2019-02-11T18:47:50.617Z,66.18
2019-02-11T18:50:18.981Z,65.84
2019-02-11T18:52:47.246Z,66.90
2019-02-11T18:55:17.556Z,66.37
2019-02-11T18:57:45.838Z,66.38
2019-02-11T19:00:17.733Z,66.43
2019-02-11T19:02:46.028Z,66.26
2019-02-11T19:05:14.624Z,66.67
2019-02-11T19:07:42.917Z,66.92
2019-02-11T19:10:13.107Z,67.10
2019-02-11T19:12:41.401Z,67.17
2019-02-11T19:15:12.106Z,67.46
2019-02-11T19:17:40.412Z,68.77
2019-02-11T19:20:16.482Z,68.08
2019-02-11T19:22:44.775Z,68.43
2019-02-11T19:25:13.096Z,68.84
2019-02-11T19:27:41.434Z,68.59
2019-02-11T19:30:18.450Z,68.61
2019-02-11T19:32:46.719Z,68.89
2019-02-11T19:35:15.014Z,69.89
2019-02-11T19:37:43.369Z,70.02
2019-02-11T19:40:14.129Z,69.97
2019-02-11T19:42:42.423Z,70.61
2019-02-11T19:45:13.240Z,70.54
2019-02-11T19:47:41.504Z,70.96
2019-02-11T19:50:12.500Z,70.35
2019-02-11T19:52:40.842Z,70.72
2019-02-11T19:55:11.002Z,70.75
2019-02-11T19:57:39.199Z,70.97
2019-02-11T20:00:24.669Z,71.11
2019-02-11T20:02:54.574Z,71.64
2019-02-11T20:05:22.880Z,71.74
2019-02-11T20:07:51.209Z,71.57
2019-02-11T20:10:25.618Z,71.27
2019-02-11T20:12:53.967Z,71.08
2019-02-11T20:15:27.587Z,70.86
2019-02-11T20:17:55.860Z,71.34
2019-02-11T20:20:27.197Z,71.26
2019-02-11T20:22:55.534Z,71.55
2019-02-11T20:25:32.688Z,71.45
2019-02-11T20:27:58.126Z,71.42
2019-02-11T20:30:28.341Z,72.00
2019-02-11T20:32:56.716Z,72.10
2019-02-11T20:35:25.050Z,72.12
2019-02-11T20:37:53.400Z,71.94
2019-02-11T20:40:29.293Z,71.95
2019-02-11T20:42:57.603Z,71.96
2019-02-11T20:45:28.207Z,72.11
2019-02-11T20:47:56.464Z,72.39
2019-02-11T20:50:24.752Z,72.37
2019-02-11T20:52:53.021Z,72.50
2019-02-11T20:55:21.310Z,72.49
2019-02-11T20:57:52.447Z,72.92
2019-02-11T21:00:24.080Z,72.61
2019-02-11T21:02:52.372Z,72.92
2019-02-11T21:05:20.826Z,72.91
2019-02-11T21:07:49.099Z,72.84
2019-02-11T21:10:19.119Z,72.95
2019-02-11T21:12:47.401Z,72.97
2019-02-11T21:15:16.519Z,73.46
2019-02-11T21:17:44.832Z,73.24
2019-02-11T21:20:18.651Z,73.32
2019-02-11T21:22:47.245Z,73.47
2019-02-11T21:25:15.505Z,73.87
2019-02-11T21:27:43.808Z,73.96
2019-02-11T21:30:13.621Z,73.67
2019-02-11T21:32:41.961Z,73.60
2019-02-11T21:35:11.481Z,73.62
2019-02-11T21:37:40.044Z,74.11
2019-02-11T21:40:08.639Z,74.05
2019-02-11T21:42:36.912Z,73.99
2019-02-11T21:45:08.020Z,74.04
2019-02-11T21:47:36.303Z,73.92
2019-02-11T21:50:26.693Z,73.93
2019-02-11T21:52:52.932Z,74.01
2019-02-11T21:55:23.227Z,74.02
2019-02-11T21:57:51.650Z,73.94
2019-02-11T22:00:21.944Z,74.04
2019-02-11T22:02:50.285Z,74.40
2019-02-11T22:05:18.554Z,74.37
2019-02-11T22:07:46.870Z,74.74
2019-02-11T22:10:19.850Z,75.06
2019-02-11T22:12:48.120Z,75.19
2019-02-11T22:15:16.405Z,74.75
2019-02-11T22:17:44.692Z,74.81
2019-02-11T22:20:20.696Z,74.72
2019-02-11T22:22:48.967Z,75.03
2019-02-11T22:25:17.218Z,75.04
2019-02-11T22:27:45.501Z,75.05
2019-02-11T22:30:41.292Z,75.67
2019-02-11T22:33:09.590Z,75.25
2019-02-11T22:35:37.838Z,75.51
2019-02-11T22:38:06.111Z,75.44
2019-02-11T22:40:34.360Z,75.37
2019-02-11T22:43:02.676Z,75.47
2019-02-11T22:45:30.948Z,75.59
2019-02-11T22:47:59.284Z,75.63
2019-02-11T22:50:27.541Z,75.56
2019-02-11T22:52:55.819Z,75.74
2019-02-11T22:55:24.082Z,75.56
2019-02-11T22:57:52.393Z,75.50
2019-02-11T23:00:25.206Z,75.67
2019-02-11T23:02:53.480Z,75.66
2019-02-11T23:05:21.762Z,75.98
2019-02-11T23:07:50.017Z,76.46
2019-02-11T23:10:18.286Z,76.53
2019-02-11T23:12:46.561Z,76.85
2019-02-11T23:15:14.830Z,76.58
2019-02-11T23:17:43.086Z,76.62
2019-02-11T23:20:11.383Z,76.71
2019-02-11T23:22:39.662Z,76.75
2019-02-11T23:25:07.958Z,76.39
2019-02-11T23:27:36.220Z,76.27
2019-02-11T23:30:13.297Z,76.31
2019-02-11T23:32:36.870Z,76.10
2019-02-11T23:35:05.696Z,76.13
2019-02-11T23:37:33.955Z,76.09
2019-02-11T23:40:02.243Z,75.85
2019-02-11T23:42:31.485Z,75.61
2019-02-11T23:44:59.729Z,75.46
2019-02-11T23:47:27.975Z,75.17
2019-02-11T23:49:56.381Z,75.08
2019-02-11T23:52:24.635Z,75.21
2019-02-11T23:54:52.925Z,75.21
2019-02-11T23:57:21.222Z,74.82
2019-02-11T23:59:49.522Z,75.17
